Largo — PFNC — position and weather

sailwx.info

Track history (hours):
 
Tides and Currents Weather Stations Pressure Air Temp Water Temp Dewpoint Dewpoint Depression Visibility Wind Speed Wind Dir Waves Ship Positions

Largo

Last reported at 2016-Feb-06 22:28 UTC. Time now 2016-Feb-08 12:29 UTC.
Position N 37°00' E 002°55'.

Length 91 m; draft 6.3 m.

Type: Cargo ship. MMSI: 245645000.

Date/timePositionNaut miles runAvg speedWind from/ knotsBaromVisibWave heightAir tempDewpointWater temp
2016-Feb-06 22:28N 37°00' E 002°55'7 7.9
2016-Feb-06 21:33N 37°06' E 002°49'89 8.7
2016-Feb-06 11:24N 38°14' E 001°36'8 9.6
2016-Feb-06 10:33N 38°20' E 001°30'31 9.3
2016-Feb-06 07:14N 38°44' E 001°05'  
2016-Feb-03 05:19N 36°32' E 001°19'0 0.0
2016-Feb-03 04:07N 36°32' E 001°19'0 0.0
2016-Feb-03 03:32N 36°32' E 001°19'0 0.0
2016-Feb-03 02:20N 36°32' E 001°19'0 0.0
2016-Feb-03 01:32N 36°32' E 001°19'0 0.0
2016-Feb-03 00:31N 36°32' E 001°19'0 0.0
2016-Feb-02 23:31N 36°32' E 001°19'0 0.0
2016-Feb-02 22:31N 36°32' E 001°19'0 0.0
2016-Feb-02 21:31N 36°32' E 001°19'0 0.0
2016-Feb-02 20:25N 36°32' E 001°19'0 0.0
2016-Feb-02 19:25N 36°32' E 001°19'0 0.0
2016-Feb-02 18:25N 36°32' E 001°19'0 0.0
2016-Feb-02 17:25N 36°32' E 001°19'0 0.0
2016-Feb-02 16:13N 36°32' E 001°19'0 0.0
2016-Feb-02 14:32N 36°32' E 001°19'0 0.0
2016-Feb-02 13:31N 36°32' E 001°19'0 0.0
2016-Feb-02 12:19N 36°32' E 001°19'0 0.0
2016-Feb-02 08:13N 36°32' E 001°19'0 0.0
2016-Feb-02 07:31N 36°32' E 001°19'0 0.0
2016-Feb-02 05:31N 36°32' E 001°19'0 0.0
2016-Feb-02 03:26N 36°32' E 001°19'0 0.0
2016-Feb-02 02:14N 36°32' E 001°19'0 0.0
2016-Feb-01 23:31N 36°32' E 001°19'0 0.0
2016-Feb-01 21:31N 36°32' E 001°19'0 0.0
2016-Feb-01 18:25N 36°32' E 001°19'  
Track history (hours):
 
Tides and Currents Weather Stations Pressure Air Temp Water Temp Dewpoint Dewpoint Depression Visibility Wind Speed Wind Dir Waves Ship Positions

Largo

Last reported at 2016-Feb-06 22:28 UTC. Time now 2016-Feb-08 12:29 UTC.
Position N 37°00' E 002°55'.

Length 91 m; draft 6.3 m.

Type: Cargo ship. MMSI: 245645000.

Date/timePositionNaut miles runAvg speedWind from/ knotsBaromVisibWave heightAir tempDewpointWater temp
2016-Feb-06 22:28N 37°00' E 002°55'7 7.9
2016-Feb-06 21:33N 37°06' E 002°49'89 8.7
2016-Feb-06 11:24N 38°14' E 001°36'8 9.6
2016-Feb-06 10:33N 38°20' E 001°30'31 9.3
2016-Feb-06 07:14N 38°44' E 001°05'  
2016-Feb-03 05:19N 36°32' E 001°19'0 0.0
2016-Feb-03 04:07N 36°32' E 001°19'0 0.0
2016-Feb-03 03:32N 36°32' E 001°19'0 0.0
2016-Feb-03 02:20N 36°32' E 001°19'0 0.0
2016-Feb-03 01:32N 36°32' E 001°19'0 0.0
2016-Feb-03 00:31N 36°32' E 001°19'0 0.0
2016-Feb-02 23:31N 36°32' E 001°19'0 0.0
2016-Feb-02 22:31N 36°32' E 001°19'0 0.0
2016-Feb-02 21:31N 36°32' E 001°19'0 0.0
2016-Feb-02 20:25N 36°32' E 001°19'0 0.0
2016-Feb-02 19:25N 36°32' E 001°19'0 0.0
2016-Feb-02 18:25N 36°32' E 001°19'0 0.0
2016-Feb-02 17:25N 36°32' E 001°19'0 0.0
2016-Feb-02 16:13N 36°32' E 001°19'0 0.0
2016-Feb-02 14:32N 36°32' E 001°19'0 0.0
2016-Feb-02 13:31N 36°32' E 001°19'0 0.0
2016-Feb-02 12:19N 36°32' E 001°19'0 0.0
2016-Feb-02 08:13N 36°32' E 001°19'0 0.0
2016-Feb-02 07:31N 36°32' E 001°19'0 0.0
2016-Feb-02 05:31N 36°32' E 001°19'0 0.0
2016-Feb-02 03:26N 36°32' E 001°19'0 0.0
2016-Feb-02 02:14N 36°32' E 001°19'0 0.0
2016-Feb-01 23:31N 36°32' E 001°19'0 0.0
2016-Feb-01 21:31N 36°32' E 001°19'0 0.0
2016-Feb-01 18:25N 36°32' E 001°19'  

Dump ship's entire track history